Time;durP1;ratioP1;P1;durP2;ratioP2;P2;SDS_P1;SDS_P2;PMS_P1;PMS_P2;Temp;Humidity;BMP_temperature;BMP_pressure;BME280_temperature;BME280_humidity;BME280_pressure;Samples;Min_cycle;Max_cycle;Signal;HPM_P1;HPM_P2
2023/07/20 16:16:26;;;;;;;8.30;5.30;;;;;;;25.84;66.25;99201.36;111716;1249;22480;-40
2023/07/20 16:18:54;;;;;;;7.80;5.30;;;;;;;25.73;66.81;99202.58;110231;1249;22588;-40
2023/07/20 16:21:21;;;;;;;13.50;5.50;;;;;;;25.63;67.25;99211.02;110371;1249;22637;-40
2023/07/20 16:23:49;;;;;;;17.60;7.00;;;;;;;25.53;67.66;99215.38;110165;1249;22525;-41
2023/07/20 16:26:16;;;;;;;10.60;6.20;;;;;;;25.46;67.88;99222.20;110323;1249;22521;-41
2023/07/20 16:28:45;;;;;;;12.10;6.40;;;;;;;25.39;68.28;99224.10;110369;1249;25432;-40
2023/07/20 16:31:13;;;;;;;13.90;6.40;;;;;;;25.33;68.73;99226.58;112872;1249;22421;-40
2023/07/20 16:33:42;;;;;;;11.90;5.90;;;;;;;25.27;69.25;99228.27;112296;1249;24197;-41
2023/07/20 16:36:13;;;;;;;9.60;6.70;;;;;;;25.22;69.76;99227.95;110086;1249;22578;-41
2023/07/20 16:38:40;;;;;;;10.00;6.70;;;;;;;25.15;70.98;99221.88;110025;1235;23899;-39
2023/07/20 16:41:11;;;;;;;9.40;6.40;;;;;;;25.08;71.81;99225.12;109940;1249;26596;-47
2023/07/20 16:43:38;;;;;;;9.50;6.40;;;;;;;25.03;72.54;99228.38;109881;1249;25393;-45
2023/07/20 16:46:09;;;;;;;8.70;6.40;;;;;;;24.96;72.89;99233.87;109780;1249;22977;-41
2023/07/20 16:48:39;;;;;;;10.20;6.70;;;;;;;24.87;73.28;99232.73;110174;1249;22507;-41
2023/07/20 16:51:09;;;;;;;10.20;6.60;;;;;;;24.80;73.52;99240.64;109962;1249;22539;-40
2023/07/20 16:53:37;;;;;;;10.50;6.40;;;;;;;24.71;73.99;99248.92;110078;1249;22518;-41
2023/07/20 16:56:04;;;;;;;12.30;6.80;;;;;;;24.63;74.52;99257.04;110797;1249;25408;-41
2023/07/20 16:58:33;;;;;;;15.90;6.30;;;;;;;24.57;74.94;99255.36;110092;1249;22521;-40
2023/07/20 17:01:07;;;;;;;11.10;6.70;;;;;;;24.50;75.27;99246.95;109983;1249;25493;-47
2023/07/20 17:03:35;;;;;;;9.90;6.70;;;;;;;24.43;75.55;99237.99;110069;1249;22520;-42
2023/07/20 17:06:04;;;;;;;8.50;6.20;;;;;;;24.36;75.99;99232.99;110440;1249;23286;-45
2023/07/20 17:08:31;;;;;;;9.90;6.70;;;;;;;24.29;76.28;99228.14;110192;1249;22501;-46
2023/07/20 17:11:02;;;;;;;11.10;6.30;;;;;;;24.22;76.58;99227.59;109897;1249;25432;-45
2023/07/20 17:13:32;;;;;;;12.30;6.60;;;;;;;24.17;76.86;99226.88;110287;1249;22505;-41
2023/07/20 17:16:00;;;;;;;10.60;6.10;;;;;;;24.12;77.34;99226.18;110592;1249;25305;-42
2023/07/20 17:18:27;;;;;;;19.80;6.60;;;;;;;24.05;77.71;99216.34;109898;1249;22520;-46
2023/07/20 17:20:54;;;;;;;9.50;6.80;;;;;;;24.00;78.07;99225.45;110453;1249;24202;-42
2023/07/20 17:23:21;;;;;;;13.80;6.70;;;;;;;23.96;78.45;99232.73;110316;1249;25431;-46
2023/07/20 17:25:51;;;;;;;12.80;7.30;;;;;;;23.90;78.66;99233.32;110302;1249;22231;-42
2023/07/20 17:28:21;;;;;;;10.30;6.50;;;;;;;23.86;79.01;99231.46;109974;1249;22663;-40
2023/07/20 17:31:01;;;;;;;7.50;6.10;;;;;;;23.81;79.30;99231.27;110276;1249;24355;-46
2023/07/20 17:33:28;;;;;;;10.70;6.50;;;;;;;23.76;79.58;99238.24;110333;1249;22529;-47
2023/07/20 17:35:57;;;;;;;8.50;6.60;;;;;;;23.70;79.88;99239.71;110366;1249;23196;-41
2023/07/20 17:38:44;;;;;;;8.80;6.60;;;;;;;23.65;80.36;99243.27;110016;1237;22526;-47
2023/07/20 17:41:11;;;;;;;8.90;6.40;;;;;;;23.61;80.66;99242.64;110472;1249;22521;-41
2023/07/20 17:43:42;;;;;;;9.40;6.80;;;;;;;23.59;80.83;99238.67;109914;1249;25397;-41
2023/07/20 17:46:09;;;;;;;10.00;7.30;;;;;;;23.57;81.10;99241.65;110193;1249;25395;-42
2023/07/20 17:48:40;;;;;;;10.40;6.70;;;;;;;23.55;81.10;99241.95;110272;1249;25256;-41
2023/07/20 17:51:07;;;;;;;14.20;7.30;;;;;;;23.53;81.29;99243.89;109929;1249;24199;-41
2023/07/20 17:53:34;;;;;;;9.40;7.20;;;;;;;23.49;81.46;99242.39;110042;1249;22508;-43
2023/07/20 17:56:02;;;;;;;12.80;6.10;;;;;;;23.45;81.83;99237.56;110104;1249;22510;-41
2023/07/20 17:58:30;;;;;;;8.00;5.70;;;;;;;23.41;82.07;99241.73;110170;1249;25310;-47
2023/07/20 18:00:58;;;;;;;9.30;6.80;;;;;;;23.37;82.43;99244.13;109832;1249;22562;-41
2023/07/20 18:03:26;;;;;;;9.70;6.30;;;;;;;23.34;82.66;99238.83;109811;1249;22527;-45
2023/07/20 18:05:53;;;;;;;14.20;6.50;;;;;;;23.28;83.02;99241.39;110562;1249;22512;-46
2023/07/20 18:08:21;;;;;;;13.50;6.90;;;;;;;23.22;83.56;99246.42;109832;1249;22575;-41
2023/07/20 18:10:48;;;;;;;9.60;6.30;;;;;;;23.18;83.90;99249.33;110610;1249;23289;-47
2023/07/20 18:13:15;;;;;;;10.30;6.60;;;;;;;23.15;84.32;99249.21;110100;1235;25460;-40
2023/07/20 18:15:43;;;;;;;14.30;7.40;;;;;;;23.12;84.69;99245.16;110742;1249;23115;-41
2023/07/20 18:18:10;;;;;;;13.00;7.50;;;;;;;23.07;84.94;99246.75;110275;1249;23778;-40
2023/07/20 18:20:39;;;;;;;9.90;7.00;;;;;;;23.01;85.43;99253.49;110041;1249;23255;-41
2023/07/20 18:23:06;;;;;;;10.80;7.00;;;;;;;22.98;85.83;99264.59;110334;1249;22637;-47
2023/07/20 18:25:33;;;;;;;15.70;7.70;;;;;;;22.97;86.22;99267.34;109677;1249;22521;-41
2023/07/20 18:28:01;;;;;;;11.20;7.80;;;;;;;22.97;86.48;99274.98;109956;1249;25239;-39
2023/07/20 18:30:32;;;;;;;12.50;7.50;;;;;;;22.99;86.68;99277.86;110189;1249;23153;-42
2023/07/20 18:33:00;;;;;;;18.90;8.40;;;;;;;22.99;86.65;99276.11;110256;1249;25483;-45
2023/07/20 18:35:29;;;;;;;10.90;7.40;;;;;;;23.00;86.79;99272.80;110189;1249;26474;-47
2023/07/20 18:37:57;;;;;;;13.10;6.70;;;;;;;23.02;86.67;99272.86;110236;1249;22649;-46
2023/07/20 18:40:25;;;;;;;18.20;6.50;;;;;;;23.04;86.74;99276.66;110479;1249;22525;-41
2023/07/20 18:42:53;;;;;;;9.40;6.70;;;;;;;23.05;86.72;99274.44;110317;1249;24171;-40
2023/07/20 18:45:20;;;;;;;10.50;7.10;;;;;;;23.06;86.65;99274.88;110409;1249;24263;-42
2023/07/20 18:47:47;;;;;;;15.70;6.70;;;;;;;23.06;86.47;99276.64;109840;1249;24339;-47
2023/07/20 18:50:15;;;;;;;10.90;6.70;;;;;;;23.05;86.55;99276.91;110390;1249;22500;-42
2023/07/20 18:52:44;;;;;;;11.80;7.00;;;;;;;23.03;86.51;99278.45;110486;1249;22508;-40
2023/07/20 18:55:11;;;;;;;9.80;6.50;;;;;;;23.02;86.79;99275.34;109917;1249;25633;-46
2023/07/20 18:57:40;;;;;;;11.30;7.10;;;;;;;23.00;87.05;99270.48;110001;1249;22500;-46
2023/07/20 19:00:09;;;;;;;10.40;7.40;;;;;;;22.98;87.29;99265.46;110590;1249;22512;-41
2023/07/20 19:02:37;;;;;;;12.40;6.80;;;;;;;22.94;87.72;99247.63;110459;1249;25331;-42
2023/07/20 19:05:05;;;;;;;10.20;7.50;;;;;;;22.90;88.05;99239.56;110837;1249;22601;-41
2023/07/20 19:07:32;;;;;;;11.90;6.90;;;;;;;22.85;88.32;99236.66;110444;1249;23881;-40
2023/07/20 19:09:59;;;;;;;11.00;7.70;;;;;;;22.79;88.64;99245.22;110134;1249;22626;-40
2023/07/20 19:12:26;;;;;;;11.60;7.50;;;;;;;22.73;89.11;99249.19;110589;1249;22508;-42
2023/07/20 19:14:53;;;;;;;10.00;7.10;;;;;;;22.67;89.60;99239.10;109949;1249;25468;-42
2023/07/20 19:17:24;;;;;;;10.00;6.40;;;;;;;22.63;89.97;99234.91;110293;1249;22526;-40
2023/07/20 19:19:52;;;;;;;13.50;7.30;;;;;;;22.59;90.34;99251.35;110052;1249;22619;-47
2023/07/20 19:22:19;;;;;;;12.40;7.60;;;;;;;22.54;90.63;99264.98;110264;1249;22518;-42
2023/07/20 19:24:46;;;;;;;17.10;7.10;;;;;;;22.50;90.90;99270.38;110758;1249;22534;-40
2023/07/20 19:27:14;;;;;;;9.60;8.40;;;;;;;22.49;91.22;99280.61;110188;1249;25335;-41
2023/07/20 19:29:42;;;;;;;19.40;8.70;;;;;;;22.43;91.37;99293.42;110048;1249;22566;-40
2023/07/20 19:32:10;;;;;;;21.80;10.50;;;;;;;22.34;91.74;99308.22;109849;1249;22527;-41
2023/07/20 19:34:37;;;;;;;22.80;10.80;;;;;;;22.22;92.35;99321.38;110165;1249;23880;-41
2023/07/20 19:37:05;;;;;;;28.70;11.10;;;;;;;22.12;93.23;99328.42;110117;1249;25947;-42
2023/07/20 19:39:32;;;;;;;19.70;10.20;;;;;;;22.03;94.24;99352.02;110850;1249;22527;-40
2023/07/20 19:41:59;;;;;;;11.10;5.50;;;;;;;21.93;94.67;99376.29;110278;1249;24277;-43
2023/07/20 19:44:27;;;;;;;9.90;3.90;;;;;;;21.71;90.38;99386.49;110033;1249;22498;-45
2023/07/20 19:46:54;;;;;;;16.80;2.00;;;;;;;21.44;86.20;99391.10;109822;1249;24240;-40
2023/07/20 19:49:22;;;;;;;13.30;1.70;;;;;;;21.14;82.92;99400.09;110585;1249;22638;-41
2023/07/20 19:51:52;;;;;;;5.20;1.80;;;;;;;20.78;83.23;99409.02;109986;1249;22519;-46
2023/07/20 19:54:19;;;;;;;2.80;1.00;;;;;;;20.47;85.00;99416.95;110348;1249;25329;-48
2023/07/20 19:56:49;;;;;;;3.40;0.90;;;;;;;20.15;88.74;99416.70;110130;1249;23086;-47
2023/07/20 19:59:16;;;;;;;2.30;0.80;;;;;;;19.77;92.02;99435.15;110296;1249;22595;-42
2023/07/20 20:01:43;;;;;;;5.20;1.40;;;;;;;19.35;95.99;99444.50;110511;1249;24388;-40
2023/07/20 20:04:12;;;;;;;2.60;1.30;;;;;;;18.92;99.35;99444.45;110090;1249;22521;-41
2023/07/20 20:06:42;;;;;;;2.90;1.30;;;;;;;18.60;100.00;99437.45;110765;1249;26876;-41
2023/07/20 20:09:10;;;;;;;16.90;1.70;;;;;;;18.37;100.00;99437.64;110093;1249;25342;-41
2023/07/20 20:11:37;;;;;;;6.70;1.30;;;;;;;18.23;100.00;99441.08;110247;1249;22503;-41
2023/07/20 20:14:05;;;;;;;4.50;1.40;;;;;;;18.15;100.00;99444.45;109979;1249;22524;-46
2023/07/20 20:16:33;;;;;;;4.40;1.40;;;;;;;18.08;100.00;99439.65;110039;1249;22681;-47
2023/07/20 20:19:01;;;;;;;2.70;1.10;;;;;;;18.06;100.00;99432.84;110454;1249;22658;-40
2023/07/20 20:21:28;;;;;;;7.60;1.90;;;;;;;18.09;100.00;99425.82;110471;1249;23304;-42
2023/07/20 20:23:55;;;;;;;3.40;1.80;;;;;;;18.15;100.00;99417.11;110105;1249;22531;-46
2023/07/20 20:26:24;;;;;;;7.80;1.80;;;;;;;18.17;100.00;99408.88;110356;1249;25417;-42
2023/07/20 20:28:51;;;;;;;6.80;1.60;;;;;;;18.20;100.00;99400.10;110619;1249;23412;-40
2023/07/20 20:31:18;;;;;;;6.80;1.70;;;;;;;18.24;100.00;99381.55;110328;1249;22549;-41
2023/07/20 20:33:46;;;;;;;4.40;1.60;;;;;;;18.28;100.00;99367.80;110008;1249;22490;-42
2023/07/20 20:36:13;;;;;;;2.40;1.40;;;;;;;18.29;100.00;99381.51;110441;1249;22521;-41
2023/07/20 20:38:40;;;;;;;9.20;2.30;;;;;;;18.30;100.00;99389.94;110495;1249;25223;-40
2023/07/20 20:41:07;;;;;;;3.10;1.40;;;;;;;18.28;100.00;99377.69;110304;1249;22527;-41
2023/07/20 20:43:35;;;;;;;3.00;1.10;;;;;;;18.23;100.00;99368.40;110283;1249;24177;-47
2023/07/20 20:46:08;;;;;;;3.10;1.50;;;;;;;18.16;100.00;99353.17;110125;1249;25448;-41
2023/07/20 20:48:39;;;;;;;7.90;2.00;;;;;;;18.08;100.00;99336.22;109919;1249;22846;-46
2023/07/20 20:51:06;;;;;;;12.10;2.30;;;;;;;18.05;100.00;99328.63;110079;1249;26573;-42
2023/07/20 20:53:33;;;;;;;3.70;1.60;;;;;;;18.06;100.00;99332.08;109903;1249;22517;-47
2023/07/20 20:56:01;;;;;;;10.30;1.40;;;;;;;18.06;100.00;99320.63;110232;1249;22511;-46
2023/07/20 20:58:28;;;;;;;8.00;1.90;;;;;;;18.04;100.00;99312.59;110020;1249;25290;-47
2023/07/20 21:01:02;;;;;;;27.40;2.90;;;;;;;18.05;100.00;99306.03;110070;1249;24210;-47
2023/07/20 21:03:29;;;;;;;3.60;1.70;;;;;;;18.07;100.00;99309.28;110533;1249;24203;-41
2023/07/20 21:05:57;;;;;;;4.60;1.60;;;;;;;18.09;100.00;99319.41;110187;1249;25379;-40
2023/07/20 21:08:25;;;;;;;4.00;1.20;;;;;;;18.11;100.00;99321.48;110490;1249;25314;-45
2023/07/20 21:10:53;;;;;;;2.90;1.30;;;;;;;18.06;100.00;99323.08;110135;1249;22590;-47
2023/07/20 21:13:20;;;;;;;5.80;1.90;;;;;;;18.00;100.00;99329.03;109896;1249;22639;-46
2023/07/20 21:15:51;;;;;;;2.70;1.50;;;;;;;17.94;100.00;99336.50;110504;1249;22564;-42
2023/07/20 21:18:18;;;;;;;7.30;1.80;;;;;;;17.90;100.00;99340.77;110175;1249;23016;-46
2023/07/20 21:20:45;;;;;;;3.00;1.50;;;;;;;17.84;100.00;99331.69;110157;1249;24187;-46
2023/07/20 21:23:13;;;;;;;1.60;1.50;;;;;;;17.77;100.00;99329.17;110446;1249;22503;-47
2023/07/20 21:25:40;;;;;;;2.20;1.30;;;;;;;17.72;100.00;99333.79;110260;1249;23845;-47
2023/07/20 21:28:07;;;;;;;3.90;1.50;;;;;;;17.72;100.00;99339.27;110520;1249;22531;-46
2023/07/20 21:30:34;;;;;;;4.10;1.40;;;;;;;17.73;100.00;99346.98;110476;1249;25506;-42
2023/07/20 21:33:02;;;;;;;2.80;1.60;;;;;;;17.73;100.00;99353.66;110378;1249;22507;-41
2023/07/20 21:35:33;;;;;;;1.60;1.50;;;;;;;17.74;100.00;99364.38;110414;1249;25433;-40
2023/07/20 21:38:00;;;;;;;3.30;1.50;;;;;;;17.77;100.00;99373.63;110669;1249;25315;-41
2023/07/20 21:40:28;;;;;;;9.30;1.70;;;;;;;17.78;100.00;99386.62;110233;1249;22582;-40
2023/07/20 21:42:55;;;;;;;6.20;1.80;;;;;;;17.77;100.00;99390.71;110144;1249;22544;-41
2023/07/20 21:45:23;;;;;;;3.00;1.60;;;;;;;17.72;100.00;99388.65;110529;1249;22510;-44
2023/07/20 21:47:50;;;;;;;9.60;1.70;;;;;;;17.67;100.00;99391.46;110053;1249;22511;-40
2023/07/20 21:50:18;;;;;;;6.10;1.90;;;;;;;17.65;100.00;99392.61;110409;1249;23384;-46
2023/07/20 21:52:46;;;;;;;2.20;1.60;;;;;;;17.65;100.00;99394.20;110173;1249;22587;-46
2023/07/20 21:55:13;;;;;;;5.10;2.30;;;;;;;17.65;100.00;99395.64;110097;1249;22579;-42
2023/07/20 21:57:40;;;;;;;3.20;2.20;;;;;;;17.62;100.00;99383.05;109762;1249;25346;-46
2023/07/20 22:00:09;;;;;;;7.70;3.20;;;;;;;17.64;100.00;99380.54;110067;1249;22498;-41
2023/07/20 22:02:36;;;;;;;5.50;4.50;;;;;;;17.66;100.00;99376.74;110491;1249;22636;-41
2023/07/20 22:05:04;;;;;;;8.40;4.60;;;;;;;17.65;100.00;99372.34;110440;1249;25369;-47
2023/07/20 22:07:31;;;;;;;8.00;4.70;;;;;;;17.67;100.00;99370.11;110535;1249;23277;-41
2023/07/20 22:09:58;;;;;;;8.20;4.50;;;;;;;17.71;100.00;99370.69;109982;1249;24391;-41
2023/07/20 22:12:25;;;;;;;7.40;5.60;;;;;;;17.74;100.00;99376.05;110296;1249;22544;-41
2023/07/20 22:14:53;;;;;;;16.70;7.40;;;;;;;17.75;100.00;99371.77;110316;1249;22508;-47
2023/07/20 22:17:20;;;;;;;15.50;8.20;;;;;;;17.77;100.00;99370.09;109739;1249;24441;-46
2023/07/20 22:19:47;;;;;;;14.20;9.70;;;;;;;17.77;100.00;99369.75;110828;1249;23425;-40
2023/07/20 22:22:15;;;;;;;17.10;10.50;;;;;;;17.77;100.00;99369.73;110355;1249;25386;-40
2023/07/20 22:24:42;;;;;;;15.90;10.20;;;;;;;17.74;100.00;99368.10;109923;1249;24341;-46
2023/07/20 22:27:09;;;;;;;14.10;10.40;;;;;;;17.73;100.00;99367.10;110466;1249;25554;-41
2023/07/20 22:29:37;;;;;;;15.80;11.30;;;;;;;17.70;100.00;99367.70;110498;1249;22517;-40
2023/07/20 22:32:04;;;;;;;14.10;11.20;;;;;;;17.69;100.00;99366.89;110462;1249;22592;-40
2023/07/20 22:34:33;;;;;;;18.60;12.30;;;;;;;17.67;100.00;99372.08;110620;1249;22618;-45
2023/07/20 22:37:01;;;;;;;17.30;12.80;;;;;;;17.65;100.00;99370.23;111158;1249;22496;-40
2023/07/20 22:39:31;;;;;;;18.80;14.30;;;;;;;17.60;100.00;99361.98;110598;1249;22545;-47
2023/07/20 22:42:02;;;;;;;34.40;17.60;;;;;;;17.55;100.00;99354.43;110383;1249;22530;-47
2023/07/20 22:44:30;;;;;;;17.20;14.90;;;;;;;17.50;100.00;99353.42;110188;1249;22525;-41
2023/07/20 22:47:03;;;;;;;22.00;16.40;;;;;;;17.46;100.00;99359.77;110764;1249;22512;-41
2023/07/20 22:49:33;;;;;;;19.50;16.70;;;;;;;17.43;100.00;99358.67;110451;1249;22521;-46
2023/07/20 22:52:00;;;;;;;19.40;16.10;;;;;;;17.43;100.00;99360.60;110265;1249;24212;-42
2023/07/20 22:54:28;;;;;;;24.20;16.00;;;;;;;17.45;100.00;99357.52;110127;1249;22502;-46
2023/07/20 22:56:58;;;;;;;21.10;16.20;;;;;;;17.47;100.00;99350.20;110266;1249;22638;-42
2023/07/20 22:59:28;;;;;;;16.40;14.70;;;;;;;17.50;100.00;99344.98;110435;1249;22571;-41
2023/07/20 23:01:55;;;;;;;22.60;13.90;;;;;;;17.52;100.00;99342.91;110377;1249;25440;-42
2023/07/20 23:04:22;;;;;;;18.20;14.50;;;;;;;17.54;100.00;99343.38;110452;1249;22517;-40
2023/07/20 23:06:50;;;;;;;18.20;13.90;;;;;;;17.54;100.00;99347.09;110084;1249;22592;-41
2023/07/20 23:09:18;;;;;;;17.10;13.50;;;;;;;17.53;100.00;99348.88;110147;1249;22592;-40
2023/07/20 23:11:46;;;;;;;15.80;12.40;;;;;;;17.49;100.00;99348.69;110219;1249;22601;-41
2023/07/20 23:14:13;;;;;;;15.90;12.90;;;;;;;17.47;100.00;99347.92;110418;1249;22505;-42
2023/07/20 23:16:40;;;;;;;13.70;11.30;;;;;;;17.46;100.00;99350.09;110104;1249;22533;-46
2023/07/20 23:19:07;;;;;;;13.30;9.60;;;;;;;17.43;100.00;99351.23;110474;1249;22532;-46
2023/07/20 23:21:34;;;;;;;12.90;8.10;;;;;;;17.41;100.00;99355.59;109951;1249;22605;-42
2023/07/20 23:24:01;;;;;;;12.80;7.70;;;;;;;17.39;100.00;99356.36;110627;1249;22529;-48
2023/07/20 23:26:28;;;;;;;15.50;6.70;;;;;;;17.41;100.00;99362.66;110098;1249;22530;-40
2023/07/20 23:28:56;;;;;;;11.90;7.30;;;;;;;17.41;100.00;99360.33;109704;1249;25437;-46
2023/07/20 23:31:23;;;;;;;8.50;5.90;;;;;;;17.39;100.00;99358.30;110308;1249;22566;-41
2023/07/20 23:33:51;;;;;;;8.10;5.50;;;;;;;17.35;100.00;99361.65;109917;1249;22454;-41
2023/07/20 23:36:20;;;;;;;9.20;5.00;;;;;;;17.30;100.00;99357.81;110134;1249;22521;-41
2023/07/20 23:38:46;;;;;;;8.00;4.70;;;;;;;17.27;100.00;99358.10;110146;1249;22651;-40
2023/07/20 23:41:14;;;;;;;7.50;4.90;;;;;;;17.28;100.00;99361.09;110102;1249;22717;-42
2023/07/20 23:43:42;;;;;;;13.10;5.20;;;;;;;17.29;100.00;99367.53;110045;1249;25968;-45
2023/07/20 23:46:10;;;;;;;7.50;4.80;;;;;;;17.31;100.00;99372.21;110303;1249;26600;-41
2023/07/20 23:48:41;;;;;;;7.40;4.10;;;;;;;17.31;100.00;99374.17;109989;1249;22998;-46
2023/07/20 23:51:10;;;;;;;6.10;4.10;;;;;;;17.30;100.00;99376.13;110234;1249;22520;-46
2023/07/20 23:53:37;;;;;;;7.90;4.00;;;;;;;17.30;100.00;99378.77;110236;1249;25274;-48
2023/07/20 23:56:04;;;;;;;11.50;4.20;;;;;;;17.30;100.00;99380.36;110042;1249;22540;-46
2023/07/20 23:58:36;;;;;;;7.20;4.30;;;;;;;17.30;100.00;99383.88;110377;1249;22487;-41
